createdAt,value
2023-01-12T00:25:23.378Z,2.05
2023-01-12T00:27:51.522Z,1.63
2023-01-12T00:30:18.700Z,1.40
2023-01-12T00:32:45.744Z,1.48
2023-01-12T00:35:26.633Z,1.85
2023-01-12T00:37:53.763Z,2.72
2023-01-12T00:40:20.690Z,1.38
2023-01-12T00:52:55.228Z,1.92
2023-01-12T00:55:22.515Z,1.48
2023-01-12T00:57:49.577Z,1.45
2023-01-12T01:00:17.737Z,1.48
2023-01-12T01:02:44.928Z,1.20
2023-01-12T01:05:12.407Z,1.02
2023-01-12T01:07:39.747Z,1.27
2023-01-12T01:10:07.558Z,1.38
2023-01-12T01:12:34.589Z,1.10
2023-01-12T01:15:01.694Z,1.13
2023-01-12T01:17:29.305Z,1.00
2023-01-12T01:19:56.687Z,1.55
2023-01-12T01:22:23.824Z,1.50
2023-01-12T01:24:50.915Z,1.33
2023-01-12T01:27:18.106Z,1.20
2023-01-12T01:29:45.116Z,1.70
2023-01-12T01:32:12.156Z,1.40
2023-01-12T01:34:39.397Z,2.22
2023-01-12T01:37:06.356Z,1.20
2023-01-12T01:39:33.332Z,0.98
2023-01-12T02:06:25.889Z,1.15
2023-01-12T02:09:08.643Z,0.68
2023-01-12T02:25:18.430Z,1.13
2023-01-12T02:34:29.470Z,1.55
2023-01-12T02:52:48.825Z,1.13
2023-01-12T02:55:18.378Z,0.85
2023-01-12T02:57:46.720Z,1.27
2023-01-12T03:00:18.403Z,1.35
2023-01-12T03:02:45.562Z,1.08
2023-01-12T03:05:16.159Z,1.85
2023-01-12T03:07:58.754Z,1.20
2023-01-12T03:11:03.505Z,1.13
2023-01-12T03:13:34.501Z,1.25
2023-01-12T03:16:04.551Z,1.42
2023-01-12T03:18:51.337Z,1.30
2023-01-12T03:21:38.803Z,1.25
2023-01-12T03:24:25.484Z,1.75
2023-01-12T03:27:03.866Z,1.75
2023-01-12T03:34:11.047Z,1.50
2023-01-12T03:42:09.352Z,1.60
2023-01-12T03:44:41.457Z,1.55
2023-01-12T03:48:20.987Z,1.45
2023-01-12T03:51:20.928Z,1.48
2023-01-12T03:54:13.857Z,1.08
2023-01-12T03:57:32.973Z,1.52
2023-01-12T04:04:39.321Z,1.08
2023-01-12T04:07:09.077Z,1.55
2023-01-12T04:09:37.590Z,0.93
2023-01-12T04:12:11.193Z,1.17
2023-01-12T04:14:47.757Z,1.30
2023-01-12T04:17:16.098Z,1.20
2023-01-12T04:19:43.285Z,0.80
2023-01-12T04:22:34.572Z,1.58
2023-01-12T04:25:02.054Z,1.20
2023-01-12T04:27:29.154Z,1.50
2023-01-12T04:29:56.829Z,1.50
2023-01-12T04:32:24.100Z,1.95
2023-01-12T04:34:51.297Z,1.98
2023-01-12T04:37:18.939Z,1.50
2023-01-12T04:39:46.103Z,1.10
2023-01-12T04:42:31.656Z,0.90
2023-01-12T04:44:59.019Z,1.70
2023-01-12T04:47:26.236Z,1.65
2023-01-12T04:49:53.442Z,1.70
2023-01-12T04:52:20.652Z,1.25
2023-01-12T04:54:47.854Z,1.23
2023-01-12T04:57:15.108Z,1.15
2023-01-12T04:59:42.238Z,1.38
2023-01-12T05:02:09.655Z,1.58
2023-01-12T05:04:36.750Z,1.50
2023-01-12T05:07:03.973Z,1.08
2023-01-12T05:09:49.555Z,1.42
2023-01-12T05:12:16.592Z,1.40
2023-01-12T05:14:43.728Z,2.10
2023-01-12T05:17:10.845Z,1.05
2023-01-12T05:19:38.321Z,1.98
2023-01-12T05:22:05.489Z,2.13
2023-01-12T05:24:32.920Z,2.05
2023-01-12T05:27:01.657Z,1.10
2023-01-12T05:29:33.587Z,1.92
2023-01-12T05:32:00.978Z,1.48
2023-01-12T05:34:28.038Z,1.52
2023-01-12T05:36:55.156Z,1.50
2023-01-12T05:39:22.208Z,1.10
2023-01-12T05:42:08.013Z,1.90
2023-01-12T05:44:35.245Z,2.33
2023-01-12T05:47:02.304Z,1.80
2023-01-12T05:49:29.555Z,1.52
2023-01-12T05:51:56.625Z,2.00
2023-01-12T05:54:24.778Z,1.90
2023-01-12T05:56:51.883Z,1.45
2023-01-12T06:04:18.869Z,1.20
2023-01-12T06:09:50.569Z,1.40
2023-01-12T06:11:32.687Z,1.45
2023-01-12T06:14:01.320Z,1.40
2023-01-12T06:16:29.927Z,1.42
2023-01-12T06:18:57.493Z,1.05
2023-01-12T06:21:25.601Z,0.82
2023-01-12T06:23:53.297Z,2.75
2023-01-12T06:26:20.374Z,2.20
2023-01-12T06:28:47.483Z,1.65
2023-01-12T06:31:14.576Z,1.27
2023-01-12T06:33:43.527Z,1.40
2023-01-12T06:36:11.386Z,2.10
2023-01-12T06:38:38.968Z,1.33
2023-01-12T06:41:33.549Z,1.75
2023-01-12T06:44:00.834Z,1.63
2023-01-12T06:46:28.374Z,1.50
2023-01-12T06:48:57.353Z,1.15
2023-01-12T06:51:25.775Z,1.00
2023-01-12T06:53:55.226Z,1.55
2023-01-12T06:56:22.990Z,2.08
2023-01-12T06:58:50.088Z,1.70
2023-01-12T07:01:17.356Z,1.88
2023-01-12T07:03:45.750Z,1.48
2023-01-12T07:06:14.394Z,1.73
2023-01-12T07:08:41.551Z,1.85
2023-01-12T07:11:08.812Z,2.15
2023-01-12T07:13:39.194Z,1.80
2023-01-12T07:16:07.342Z,1.08
2023-01-12T07:18:47.316Z,1.38
2023-01-12T07:21:16.797Z,1.67
2023-01-12T07:23:44.116Z,1.38
2023-01-12T07:26:12.311Z,1.13
2023-01-12T07:28:39.704Z,1.27
2023-01-12T07:31:07.632Z,1.38
2023-01-12T07:33:36.722Z,1.17
2023-01-12T07:36:04.597Z,1.20
2023-01-12T07:38:32.269Z,1.60
2023-01-12T07:41:03.982Z,0.70
2023-01-12T07:43:33.503Z,1.43
2023-01-12T07:46:00.980Z,1.40
2023-01-12T07:48:28.208Z,1.27
2023-01-12T07:50:59.101Z,1.40
2023-01-12T07:53:26.549Z,1.27
2023-01-12T07:55:53.603Z,1.35
2023-01-12T07:58:21.167Z,1.30
2023-01-12T08:00:48.241Z,1.15
2023-01-12T08:03:15.507Z,1.30
2023-01-12T08:05:42.714Z,1.10
2023-01-12T08:08:09.969Z,1.13
2023-01-12T08:10:37.069Z,1.52
2023-01-12T08:13:04.087Z,1.30
2023-01-12T08:15:39.953Z,1.00
2023-01-12T08:18:17.419Z,1.52
2023-01-12T08:20:45.060Z,1.17
2023-01-12T08:23:21.999Z,1.90
2023-01-12T08:25:56.580Z,1.60
2023-01-12T08:28:34.104Z,1.63
2023-01-12T08:31:01.638Z,1.30
2023-01-12T08:33:29.031Z,1.05
2023-01-12T08:35:56.299Z,1.40
2023-01-12T08:38:23.824Z,1.40
2023-01-12T08:41:09.448Z,1.63
2023-01-12T09:16:11.259Z,1.50
2023-01-12T09:18:40.253Z,1.13
2023-01-12T09:21:11.389Z,1.58
2023-01-12T09:23:39.405Z,1.40
2023-01-12T09:29:56.491Z,0.80
2023-01-12T09:32:29.206Z,1.40
2023-01-12T09:35:03.228Z,1.60
2023-01-12T09:37:54.088Z,1.23
2023-01-12T09:40:21.547Z,1.55
2023-01-12T09:43:10.274Z,1.15
2023-01-12T09:54:54.763Z,1.85
2023-01-12T09:57:48.691Z,1.92
2023-01-12T10:00:18.242Z,1.27
2023-01-12T10:02:55.203Z,0.85
2023-01-12T10:05:44.252Z,1.70
2023-01-12T10:08:23.011Z,1.08
2023-01-12T10:11:17.632Z,1.45
2023-01-12T10:42:36.873Z,1.73
2023-01-12T10:45:16.426Z,1.40
2023-01-12T10:47:45.996Z,0.93
2023-01-12T10:50:28.754Z,1.38
2023-01-12T10:53:06.497Z,1.33
2023-01-12T10:55:40.438Z,1.55
2023-01-12T10:58:32.532Z,0.98
2023-01-12T11:01:53.102Z,1.20
2023-01-12T11:05:45.757Z,1.10
2023-01-12T11:08:28.838Z,1.08
2023-01-12T11:10:56.060Z,0.80
2023-01-12T11:13:36.458Z,1.10
2023-01-12T11:17:14.991Z,0.98
2023-01-12T11:19:45.778Z,0.80
2023-01-12T11:22:27.620Z,0.70
2023-01-12T11:25:17.503Z,1.23
2023-01-12T11:27:55.354Z,1.48
2023-01-12T11:30:29.776Z,0.90
2023-01-12T11:33:08.720Z,0.82
2023-01-12T11:35:47.249Z,1.60
2023-01-12T11:38:25.324Z,0.88
2023-01-12T11:40:58.620Z,1.45
2023-01-12T11:43:49.392Z,0.90
2023-01-12T11:46:42.531Z,1.20
2023-01-12T11:52:43.259Z,1.40
2023-01-12T11:55:16.975Z,0.88
2023-01-12T11:58:08.700Z,1.35
2023-01-12T12:01:04.885Z,1.02
2023-01-12T12:03:59.460Z,1.48
2023-01-12T12:07:31.735Z,1.05
2023-01-12T12:10:11.013Z,1.00
2023-01-12T12:13:05.505Z,0.80
2023-01-12T12:16:00.690Z,0.40
2023-01-12T12:18:30.552Z,0.50
2023-01-12T12:21:18.610Z,1.08
2023-01-12T12:24:19.721Z,1.20
2023-01-12T12:27:26.705Z,0.88
2023-01-12T12:30:41.483Z,1.10
2023-01-12T12:33:51.603Z,0.70
2023-01-12T12:36:49.983Z,0.45
2023-01-12T12:39:45.944Z,0.75
2023-01-12T12:43:04.018Z,0.70
2023-01-12T12:46:02.944Z,1.00
2023-01-12T12:48:47.220Z,0.80
2023-01-12T12:51:15.583Z,0.70
2023-01-12T12:54:17.190Z,1.17
2023-01-12T12:56:49.098Z,0.98
2023-01-12T12:59:43.909Z,1.10
2023-01-12T13:02:51.083Z,0.52
2023-01-12T13:05:43.846Z,0.65
2023-01-12T13:08:22.967Z,0.95
2023-01-12T13:10:57.663Z,1.05
2023-01-12T13:13:35.124Z,0.63
2023-01-12T13:16:41.585Z,0.55
2023-01-12T13:19:35.124Z,0.70
2023-01-12T13:22:55.064Z,0.70
2023-01-12T13:25:34.862Z,0.90
2023-01-12T13:28:02.214Z,0.60
2023-01-12T13:30:29.334Z,0.63
2023-01-12T13:33:14.792Z,0.90
2023-01-12T13:35:44.950Z,0.68
2023-01-12T13:38:34.353Z,1.05
2023-01-12T13:41:13.566Z,1.30
2023-01-12T13:43:55.481Z,0.50
2023-01-12T13:46:30.831Z,0.80
2023-01-12T13:48:58.756Z,0.30
2023-01-12T13:51:41.255Z,0.57
2023-01-12T13:54:15.906Z,1.02
2023-01-12T13:56:54.817Z,0.63
2023-01-12T13:59:22.136Z,0.60
2023-01-12T14:01:49.362Z,0.70
2023-01-12T14:04:20.072Z,0.30
2023-01-12T14:07:18.837Z,0.45
2023-01-12T14:10:01.169Z,0.85
2023-01-12T14:13:05.583Z,0.40
2023-01-12T14:16:02.598Z,0.80
2023-01-12T14:18:44.499Z,0.80
2023-01-12T14:21:29.128Z,0.65
2023-01-12T14:24:17.553Z,0.60
2023-01-12T14:26:44.712Z,0.63
2023-01-12T14:29:21.133Z,0.80
2023-01-12T14:32:01.709Z,0.40
2023-01-12T14:35:17.639Z,0.52
2023-01-12T14:38:05.576Z,0.60
2023-01-12T14:41:52.579Z,0.32
2023-01-12T14:45:43.880Z,0.60
2023-01-12T14:48:29.045Z,0.60
2023-01-12T14:51:10.799Z,0.80
2023-01-12T14:53:43.082Z,0.70
2023-01-12T14:56:22.763Z,0.47
2023-01-12T14:58:50.423Z,0.60
2023-01-12T15:01:35.186Z,0.70
2023-01-12T15:04:05.739Z,0.45
2023-01-12T15:06:39.636Z,0.80
2023-01-12T15:09:37.347Z,0.82
2023-01-12T15:12:30.497Z,0.60
2023-01-12T15:15:23.136Z,0.45
2023-01-12T15:18:29.380Z,0.90
2023-01-12T15:21:14.895Z,0.57
2023-01-12T15:24:00.975Z,0.43
2023-01-12T15:26:39.170Z,0.50
2023-01-12T15:29:06.193Z,0.65
2023-01-12T15:31:36.847Z,0.52
2023-01-12T15:34:06.301Z,0.70
2023-01-12T15:36:33.371Z,0.80
2023-01-12T15:39:00.415Z,0.50
2023-01-12T15:41:49.549Z,0.70
2023-01-12T15:44:32.008Z,0.55
2023-01-12T15:47:07.670Z,0.60
2023-01-12T15:49:34.788Z,0.60
2023-01-12T15:52:02.419Z,0.60
2023-01-12T15:54:29.413Z,0.47
2023-01-12T15:56:59.445Z,1.15
2023-01-12T15:59:26.665Z,0.75
2023-01-12T16:01:53.745Z,0.80
2023-01-12T16:04:42.236Z,0.77
2023-01-12T16:07:10.057Z,0.40
2023-01-12T16:09:37.006Z,0.70
2023-01-12T16:12:04.489Z,0.57
2023-01-12T16:14:31.506Z,0.80
2023-01-12T16:16:58.593Z,0.50
2023-01-12T16:19:26.365Z,0.60
2023-01-12T16:21:55.037Z,0.55
2023-01-12T16:24:24.163Z,0.77
2023-01-12T16:26:51.287Z,0.60
2023-01-12T16:29:19.287Z,0.60
2023-01-12T16:31:46.838Z,0.50
2023-01-12T16:34:13.863Z,0.65
2023-01-12T16:36:41.438Z,0.60
2023-01-12T16:39:12.500Z,0.90
2023-01-12T16:41:39.714Z,0.60
2023-01-12T16:44:06.679Z,0.73
2023-01-12T16:46:33.947Z,1.15
2023-01-12T16:49:03.969Z,0.93
2023-01-12T16:51:34.178Z,0.98
2023-01-12T16:54:02.751Z,0.60
2023-01-12T16:56:29.825Z,0.80
2023-01-12T16:58:57.690Z,0.70
2023-01-12T17:01:28.171Z,0.90
2023-01-12T17:03:58.638Z,0.60
2023-01-12T17:06:30.897Z,0.80
2023-01-12T17:09:01.897Z,0.82
2023-01-12T17:11:30.619Z,0.60
2023-01-12T17:13:58.335Z,0.50
2023-01-12T17:16:30.826Z,0.85
2023-01-12T17:21:25.133Z,0.50
2023-01-12T17:23:52.383Z,0.50
2023-01-12T17:26:19.848Z,0.70
2023-01-12T17:28:47.772Z,0.75
2023-01-12T17:31:19.226Z,0.90
2023-01-12T17:33:46.780Z,0.73
2023-01-12T17:36:14.523Z,0.60
2023-01-12T17:38:41.688Z,0.77
2023-01-12T17:41:34.215Z,1.10
2023-01-12T17:44:05.513Z,0.88
2023-01-12T17:46:34.421Z,0.77
2023-01-12T17:49:05.741Z,0.73
2023-01-12T17:51:34.564Z,1.40
2023-01-12T17:54:05.043Z,1.00
2023-01-12T17:56:37.014Z,0.77
2023-01-12T17:59:05.504Z,0.88
2023-01-12T18:01:36.073Z,1.10
2023-01-12T18:04:04.189Z,0.57
2023-01-12T18:06:31.898Z,0.77
2023-01-12T18:09:02.338Z,0.77
2023-01-12T18:11:31.333Z,1.15
2023-01-12T18:13:59.896Z,1.00
2023-01-12T18:16:28.061Z,0.95
2023-01-12T18:18:55.485Z,0.60
2023-01-12T18:21:30.896Z,0.50
2023-01-12T18:24:38.878Z,0.70
2023-01-12T18:27:06.438Z,0.90
2023-01-12T18:29:33.636Z,0.90
2023-01-12T18:32:00.807Z,0.50
2023-01-12T18:34:28.511Z,0.50
2023-01-12T18:36:55.676Z,0.60
2023-01-12T18:39:23.121Z,0.60
2023-01-12T18:42:09.629Z,0.57
2023-01-12T18:44:38.488Z,0.43
2023-01-12T18:47:25.146Z,0.80
2023-01-12T18:49:57.463Z,0.95
2023-01-12T18:52:43.415Z,0.68
2023-01-12T18:55:10.640Z,1.08
2023-01-12T18:57:37.877Z,0.60
2023-01-12T19:00:16.478Z,0.57
2023-01-12T19:02:44.534Z,0.75
2023-01-12T19:05:31.659Z,0.75
2023-01-12T19:07:58.732Z,0.77
2023-01-12T19:10:27.985Z,0.70
2023-01-12T19:13:15.577Z,0.70
2023-01-12T19:16:01.571Z,0.57
2023-01-12T19:18:29.047Z,0.60
2023-01-12T19:21:22.661Z,0.65
2023-01-12T19:24:08.618Z,0.60
2023-01-12T19:42:30.400Z,0.75
2023-01-12T19:42:52.250Z,0.63
2023-01-12T19:48:16.926Z,0.80
2023-01-12T19:54:02.452Z,0.80
2023-01-12T19:56:57.259Z,0.60
2023-01-12T19:59:38.149Z,0.80
2023-01-12T20:02:05.985Z,0.50
2023-01-12T20:04:33.064Z,0.55
2023-01-12T20:07:00.076Z,0.70
2023-01-12T20:09:27.908Z,0.80
2023-01-12T20:11:55.337Z,0.60
2023-01-12T20:14:22.614Z,0.73
2023-01-12T20:16:50.443Z,0.65
2023-01-12T20:19:20.825Z,0.75
2023-01-12T20:21:48.951Z,0.88
2023-01-12T20:24:16.314Z,0.50
2023-01-12T20:26:43.432Z,0.90
2023-01-12T20:29:10.568Z,0.50
2023-01-12T20:31:39.873Z,0.80
2023-01-12T20:34:24.763Z,0.60
2023-01-12T20:36:51.748Z,0.40
2023-01-12T20:39:18.945Z,0.50
2023-01-12T20:41:58.487Z,0.60
2023-01-12T20:44:34.155Z,0.50
2023-01-12T20:47:02.135Z,0.90
2023-01-12T20:49:29.161Z,0.60
2023-01-12T20:52:03.595Z,0.43
2023-01-12T20:54:54.334Z,0.47
2023-01-12T20:57:21.942Z,0.40
2023-01-12T21:02:30.712Z,0.47
2023-01-12T21:04:57.789Z,0.60
2023-01-12T21:07:25.028Z,0.60
2023-01-12T21:09:52.200Z,0.60
2023-01-12T21:12:19.673Z,0.50
2023-01-12T21:14:46.707Z,0.40
2023-01-12T21:17:13.792Z,0.32
2023-01-12T21:19:40.954Z,0.60
2023-01-12T21:22:08.228Z,0.40
2023-01-12T21:24:35.318Z,0.20
2023-01-12T21:27:02.296Z,0.28
2023-01-12T21:29:29.428Z,0.57
2023-01-12T21:31:58.098Z,0.40
2023-01-12T21:34:25.269Z,0.40
2023-01-12T21:36:52.327Z,0.50
2023-01-12T21:39:19.407Z,0.47
2023-01-12T21:42:05.512Z,0.60
2023-01-12T21:44:34.201Z,0.43
2023-01-12T21:47:01.335Z,0.40
2023-01-12T21:49:28.939Z,0.30
2023-01-12T21:51:56.218Z,0.40
2023-01-12T21:54:23.358Z,0.82
2023-01-12T21:56:50.473Z,0.30
2023-01-12T21:59:18.492Z,0.45
2023-01-12T22:01:45.917Z,0.40
2023-01-12T22:04:13.091Z,0.60
2023-01-12T22:06:40.113Z,0.50
2023-01-12T22:09:07.235Z,0.40
2023-01-12T22:11:34.408Z,0.50
2023-01-12T22:14:01.565Z,0.50
2023-01-12T22:16:28.625Z,0.40
2023-01-12T22:18:56.106Z,0.50
2023-01-12T22:21:23.299Z,0.45
2023-01-12T22:23:50.357Z,0.45
2023-01-12T22:26:20.783Z,0.30
2023-01-12T22:28:48.985Z,0.47
2023-01-12T22:31:29.520Z,0.35
2023-01-12T22:34:06.913Z,0.35
2023-01-12T22:36:43.002Z,0.50
2023-01-12T22:39:13.617Z,0.40
2023-01-12T22:41:41.159Z,0.50
2023-01-12T22:44:08.429Z,0.28
2023-01-12T22:46:36.886Z,0.30
2023-01-12T22:49:03.914Z,0.30
2023-01-12T22:51:31.340Z,0.50
2023-01-12T22:53:58.508Z,0.30
2023-01-12T22:56:26.086Z,0.30
2023-01-12T22:58:55.292Z,0.60
2023-01-12T23:01:28.075Z,0.35
2023-01-12T23:03:58.113Z,0.32
2023-01-12T23:06:26.922Z,0.32
2023-01-12T23:08:54.263Z,0.20
2023-01-12T23:11:26.732Z,0.30
2023-01-12T23:16:25.894Z,0.47
2023-01-12T23:18:55.202Z,0.57
2023-01-12T23:21:27.941Z,0.50
2023-01-12T23:24:00.265Z,1.02
2023-01-12T23:26:32.529Z,0.57
2023-01-12T23:29:03.281Z,0.55
2023-01-12T23:31:33.472Z,0.47
2023-01-12T23:34:45.558Z,0.50
2023-01-12T23:37:12.820Z,0.38
2023-01-12T23:39:40.092Z,0.30
2023-01-12T23:42:12.305Z,0.38
2023-01-12T23:47:24.659Z,0.50
2023-01-12T23:50:07.612Z,0.40
2023-01-12T23:53:07.929Z,0.40
2023-01-12T23:55:39.663Z,0.45
2023-01-12T23:59:00.259Z,0.43
